createdAt,value
2023-03-26T00:02:59.819Z,8.00
2023-03-26T00:08:55.036Z,8.10
2023-03-26T00:14:48.426Z,7.90
2023-03-26T00:20:41.858Z,8.00
2023-03-26T00:26:38.818Z,8.00
2023-03-26T00:32:32.489Z,7.90
2023-03-26T00:38:27.457Z,7.80
2023-03-26T00:44:22.937Z,7.80
2023-03-26T00:50:16.303Z,7.80
2023-03-26T00:56:10.820Z,7.80
2023-03-26T01:02:05.822Z,7.70
2023-03-26T01:07:59.355Z,7.70
2023-03-26T01:13:56.363Z,7.80
2023-03-26T01:19:56.060Z,7.80
2023-03-26T01:25:59.464Z,7.70
2023-03-26T01:32:04.050Z,7.70
2023-03-26T01:38:10.637Z,7.60
2023-03-26T01:44:12.425Z,7.50
2023-03-26T01:50:06.146Z,7.30
2023-03-26T01:56:13.125Z,7.20
2023-03-26T02:02:14.240Z,7.10
2023-03-26T02:08:12.005Z,7.10
2023-03-26T02:14:06.347Z,7.10
2023-03-26T02:20:05.750Z,7.10
2023-03-26T02:26:00.987Z,7.10
2023-03-26T02:31:54.128Z,7.00
2023-03-26T02:37:51.297Z,7.10
2023-03-26T02:43:46.946Z,7.10
2023-03-26T02:49:43.788Z,7.10
2023-03-26T02:55:42.577Z,7.20
2023-03-26T03:01:36.274Z,7.10
2023-03-26T03:07:30.369Z,7.20
2023-03-26T03:13:28.411Z,7.10
2023-03-26T03:19:21.955Z,6.80
2023-03-26T03:25:17.863Z,6.70
2023-03-26T03:31:15.042Z,6.70
2023-03-26T03:37:08.488Z,6.80
2023-03-26T03:43:10.284Z,6.70
2023-03-26T03:49:13.757Z,6.70
2023-03-26T03:55:07.855Z,6.70
2023-03-26T04:01:09.145Z,6.80
2023-03-26T04:07:23.852Z,6.80
2023-03-26T04:13:32.261Z,6.70
2023-03-26T04:19:54.923Z,6.70
2023-03-26T04:25:55.424Z,6.70
2023-03-26T04:32:06.791Z,6.60
2023-03-26T04:38:00.353Z,6.70
2023-03-26T04:44:02.315Z,6.70
2023-03-26T04:50:12.975Z,6.70
2023-03-26T04:56:14.969Z,6.70
2023-03-26T05:02:40.343Z,6.50
2023-03-26T05:08:34.415Z,6.50
2023-03-26T05:14:28.018Z,6.50
2023-03-26T05:20:26.676Z,6.40
2023-03-26T05:26:20.712Z,6.40
2023-03-26T05:32:14.188Z,6.40
2023-03-26T05:38:09.351Z,6.30
2023-03-26T05:44:03.068Z,6.40
2023-03-26T05:49:57.385Z,6.40
2023-03-26T05:55:56.172Z,6.40
2023-03-26T06:02:08.332Z,6.40
2023-03-26T06:08:31.623Z,6.30
2023-03-26T06:14:26.059Z,6.30
2023-03-26T06:20:38.479Z,6.30
2023-03-26T06:26:37.301Z,6.20
2023-03-26T06:32:51.959Z,6.30
2023-03-26T06:38:50.240Z,6.40
2023-03-26T06:44:43.806Z,6.50
2023-03-26T06:50:57.013Z,6.70
2023-03-26T06:57:04.600Z,6.80
2023-03-26T07:03:30.492Z,6.80
2023-03-26T07:09:43.679Z,6.80
2023-03-26T07:15:59.312Z,6.80
2023-03-26T07:22:16.484Z,6.90
2023-03-26T07:28:37.548Z,6.90
2023-03-26T07:35:12.276Z,7.10
2023-03-26T07:41:23.748Z,7.10
2023-03-26T07:47:53.876Z,7.00
2023-03-26T07:54:00.730Z,6.80
2023-03-26T08:00:12.390Z,6.70
2023-03-26T08:06:28.766Z,6.80
2023-03-26T08:12:36.402Z,6.70
2023-03-26T08:18:45.095Z,6.80
2023-03-26T08:24:44.442Z,6.90
2023-03-26T08:30:38.325Z,7.10
2023-03-26T08:36:32.163Z,7.20
2023-03-26T08:43:04.413Z,7.10
2023-03-26T08:49:28.469Z,7.10
2023-03-26T08:55:42.190Z,7.30
2023-03-26T09:02:22.661Z,7.50
2023-03-26T09:08:57.444Z,7.60
2023-03-26T09:15:27.450Z,7.80
2023-03-26T09:21:51.545Z,8.00
2023-03-26T09:28:09.517Z,8.10
2023-03-26T09:34:27.051Z,7.90
2023-03-26T09:40:25.709Z,7.80
2023-03-26T09:46:31.824Z,7.80
2023-03-26T09:52:45.699Z,7.80
2023-03-26T09:59:08.596Z,8.00
2023-03-26T10:05:14.564Z,8.10
2023-03-26T10:11:18.236Z,8.20
2023-03-26T10:17:33.942Z,8.10
2023-03-26T10:23:53.829Z,8.20
2023-03-26T10:30:19.294Z,10.10
2023-03-26T10:36:30.006Z,11.10
2023-03-26T10:42:44.940Z,12.00
2023-03-26T10:49:00.838Z,10.20
2023-03-26T10:54:58.319Z,10.10
2023-03-26T11:00:59.026Z,12.20
2023-03-26T11:06:59.921Z,10.50
2023-03-26T11:12:59.445Z,10.90
2023-03-26T11:18:58.741Z,12.50
2023-03-26T11:25:07.356Z,14.00
2023-03-26T11:31:09.986Z,13.10
2023-03-26T11:37:14.929Z,13.10
2023-03-26T11:43:11.330Z,14.20
2023-03-26T11:49:11.576Z,13.60
2023-03-26T11:55:05.144Z,14.10
2023-03-26T12:00:59.453Z,15.20
2023-03-26T12:07:00.067Z,15.70
2023-03-26T12:12:55.946Z,15.20
2023-03-26T12:19:00.962Z,15.40
2023-03-26T12:25:03.224Z,15.70
2023-03-26T12:31:02.743Z,16.50
2023-03-26T12:36:59.878Z,16.00
2023-03-26T12:44:50.058Z,15.90
2023-03-26T12:49:13.008Z,16.10
2023-03-26T12:55:20.846Z,16.90
2023-03-26T13:01:27.933Z,16.80
2023-03-26T13:07:32.666Z,16.60
2023-03-26T13:13:47.454Z,16.60
2023-03-26T13:19:49.862Z,16.60
2023-03-26T13:25:49.192Z,16.20
2023-03-26T13:31:50.908Z,17.40
2023-03-26T13:37:52.738Z,15.80
2023-03-26T13:43:58.238Z,15.30
2023-03-26T13:49:55.524Z,16.40
2023-03-26T13:55:53.949Z,16.70
2023-03-26T14:01:51.538Z,16.40
2023-03-26T14:07:49.916Z,17.00
2023-03-26T14:13:49.635Z,16.80
2023-03-26T14:20:05.142Z,17.50
2023-03-26T14:26:15.157Z,16.80
2023-03-26T14:32:26.690Z,16.90
2023-03-26T14:38:47.294Z,16.00
2023-03-26T14:45:01.714Z,15.20
2023-03-26T14:51:10.981Z,14.40
2023-03-26T14:57:46.260Z,15.70
2023-03-26T15:04:21.614Z,15.80
2023-03-26T15:10:42.391Z,13.80
2023-03-26T15:17:18.606Z,13.30
2023-03-26T15:23:53.429Z,12.20
2023-03-26T15:30:30.464Z,12.00
2023-03-26T15:36:57.075Z,12.20
2023-03-26T15:43:00.098Z,11.80
2023-03-26T15:49:01.130Z,11.90
2023-03-26T15:55:01.611Z,12.50
2023-03-26T16:01:06.942Z,12.30
2023-03-26T16:07:09.844Z,12.00
2023-03-26T16:13:28.115Z,12.00
2023-03-26T16:19:48.521Z,11.50
2023-03-26T16:26:00.314Z,11.40
2023-03-26T16:32:29.168Z,11.50
2023-03-26T16:38:27.228Z,11.60
2023-03-26T16:44:26.205Z,11.30
2023-03-26T16:50:26.351Z,10.90
2023-03-26T16:56:32.041Z,10.50
2023-03-26T17:02:33.104Z,10.40
2023-03-26T17:08:36.305Z,10.40
2023-03-26T17:14:49.314Z,10.30
2023-03-26T17:20:51.393Z,10.20
2023-03-26T17:26:54.783Z,10.00
2023-03-26T17:33:00.238Z,9.80
2023-03-26T17:39:23.053Z,9.70
2023-03-26T17:45:18.821Z,9.80
2023-03-26T17:51:24.516Z,9.80
2023-03-26T17:57:23.832Z,9.80
2023-03-26T18:03:22.138Z,9.70
2023-03-26T18:09:31.506Z,9.60
2023-03-26T18:15:35.199Z,9.60
2023-03-26T18:21:36.846Z,9.40
2023-03-26T18:27:38.478Z,9.30
2023-03-26T18:33:44.100Z,9.00
2023-03-26T18:39:37.090Z,9.00
2023-03-26T18:45:32.416Z,8.90
2023-03-26T18:51:28.412Z,8.70
2023-03-26T18:57:25.088Z,8.50
2023-03-26T19:03:24.664Z,8.60
2023-03-26T19:09:31.040Z,8.50
2023-03-26T19:15:26.947Z,8.50
2023-03-26T19:21:23.184Z,8.40
2023-03-26T19:27:18.193Z,8.30
2023-03-26T19:33:18.602Z,8.30
2023-03-26T19:39:21.679Z,8.40
2023-03-26T19:45:26.091Z,8.40
2023-03-26T19:51:22.666Z,8.10
2023-03-26T19:57:16.119Z,8.10
2023-03-26T20:03:10.995Z,7.90
2023-03-26T20:09:04.560Z,8.00
2023-03-26T20:14:58.253Z,7.90
2023-03-26T20:20:54.740Z,7.70
2023-03-26T20:26:48.886Z,7.40
2023-03-26T20:32:44.524Z,7.10
2023-03-26T20:38:40.328Z,7.10
2023-03-26T20:44:33.748Z,6.90
2023-03-26T20:50:27.276Z,6.90
2023-03-26T20:56:22.659Z,6.70
2023-03-26T21:02:15.719Z,6.60
2023-03-26T21:08:14.264Z,6.50
2023-03-26T21:14:16.520Z,6.40
2023-03-26T21:20:13.732Z,6.20
2023-03-26T21:26:10.300Z,6.20
2023-03-26T21:32:06.457Z,5.90
2023-03-26T21:38:00.434Z,5.90
2023-03-26T21:43:53.865Z,5.80
2023-03-26T21:49:49.175Z,5.90
2023-03-26T21:55:57.659Z,5.80
2023-03-26T22:01:56.844Z,5.80
2023-03-26T22:07:57.528Z,5.70
2023-03-26T22:13:50.885Z,5.90
2023-03-26T22:19:44.225Z,5.30
2023-03-26T22:25:39.694Z,5.20
2023-03-26T22:31:33.272Z,5.20
2023-03-26T22:37:26.684Z,5.00
2023-03-26T22:43:21.402Z,5.10
2023-03-26T22:49:14.767Z,5.00
2023-03-26T22:55:09.314Z,5.00
2023-03-26T23:01:08.455Z,4.90
2023-03-26T23:07:01.597Z,4.60
2023-03-26T23:12:55.025Z,4.70
2023-03-26T23:18:49.889Z,4.60
2023-03-26T23:24:43.240Z,4.70
2023-03-26T23:30:36.147Z,4.60
2023-03-26T23:36:30.737Z,4.50
2023-03-26T23:42:28.692Z,4.50
2023-03-26T23:48:25.003Z,4.50
2023-03-26T23:54:21.479Z,4.40
